KASL

Harrison County Airport

Marshall, Texas, USA
METAR KASL 211955Z AUTO 16007KT 10SM OVC018 19/16 A2993 RMK AO1 T01930158
Observed Flight Rules
Jan-21 @ 19:55 UTC (20 minutes ago) Marginal Visual Flight Rules
Wind Visibility Clouds
160° at 7 knots 10 miles
  • Overcast at 1,800' AGL
Temperatures Readings
Current 19°C / 66°F
Dewpoint 16°C / 61°F
Humidity 83%
Altimeter 29.93" Hg
Pressure 1014 hPa
Elevation 109
METAR KASL 211955Z AUTO 16007KT 10SM OVC018 19/16 A2993 RMK AO1 T01930158
Observed Flight Rules
Jan-21 @ 19:55 UTC
(20 minutes ago)
MVFR
Wind Visibility
160° at 7 knots 10 miles
Clouds
  • Overcast at 1,800' AGL
Temperature Dewpoint
19°C / 66°F 16°C / 61°F
Humidity Altimeter Pressure
83% 29.93" Hg 1014 hPa